Time;durP1;ratioP1;P1;durP2;ratioP2;P2;SDS_P1;SDS_P2;PMS_P1;PMS_P2;Temp;Humidity;BMP_temperature;BMP_pressure;BME280_temperature;BME280_humidity;BME280_pressure;Samples;Min_cycle;Max_cycle;Signal;HPM_P1;HPM_P2
2023/07/27 00:04:33;;;;;;;10.47;5.40;;;26.40;29.90;;;;;;20919722;28;20271;-56
2023/07/27 00:14:34;;;;;;;12.32;6.18;;;26.20;29.90;;;;;;20919683;28;20069;-56
2023/07/27 00:24:35;;;;;;;10.67;7.10;;;26.20;30.10;;;;;;20918540;28;20045;-56
2023/07/27 00:34:36;;;;;;;10.37;4.97;;;26.20;29.80;;;;;;20918429;28;20052;-56
2023/07/27 00:44:36;;;;;;;9.57;5.50;;;26.30;30.00;;;;;;20917028;28;20045;-57
2023/07/27 00:54:37;;;;;;;8.20;4.93;;;26.30;30.20;;;;;;20915968;28;20425;-59
2023/07/27 01:04:38;;;;;;;10.30;6.40;;;26.30;30.50;;;;;;20913576;28;20045;-57
2023/07/27 01:14:57;;;;;;;10.77;5.63;;;26.40;30.40;;;;;;20915190;28;20129;-58
2023/07/27 01:25:10;;;;;;;11.60;5.28;;;26.50;30.40;;;;;;20913652;28;20478;-56
2023/07/27 01:35:15;;;;;;;9.93;5.72;;;26.50;31.10;;;;;;20912434;28;20044;-57
2023/07/27 01:45:18;;;;;;;11.38;6.10;;;26.40;31.60;;;;;;20912800;28;20390;-56
2023/07/27 01:55:19;;;;;;;11.05;5.60;;;26.30;32.40;;;;;;20910931;28;20052;-56
2023/07/27 02:05:22;;;;;;;11.95;5.97;;;26.40;32.50;;;;;;20910713;28;20049;-56
2023/07/27 02:15:26;;;;;;;12.40;5.78;;;26.20;32.90;;;;;;20910343;28;20053;-56
2023/07/27 02:25:27;;;;;;;9.30;5.20;;;25.90;33.70;;;;;;20909699;28;20049;-56
2023/07/27 02:35:28;;;;;;;10.87;5.40;;;25.50;34.90;;;;;;20910526;28;20547;-57
2023/07/27 02:45:29;;;;;;;9.70;5.47;;;25.10;35.30;;;;;;20909093;28;20048;-57
2023/07/27 02:55:29;;;;;;;8.07;5.30;;;25.10;35.40;;;;;;20925237;28;20563;-57
2023/07/27 03:05:31;;;;;;;;;;;25.10;36.20;;;;;;20926129;28;20045;-57
2023/07/27 03:15:32;;;;;;;10.13;5.17;;;25.10;36.40;;;;;;20923634;28;19928;-56
2023/07/27 03:25:34;;;;;;;8.33;4.50;;;25.10;37.60;;;;;;20924293;28;20049;-56
2023/07/27 03:35:35;;;;;;;7.43;4.20;;;25.20;41.90;;;;;;20923745;28;20049;-56
2023/07/27 03:45:36;;;;;;;6.03;4.00;;;25.30;43.20;;;;;;20922542;28;20051;-56
2023/07/27 03:55:36;;;;;;;8.47;3.50;;;25.30;42.60;;;;;;20921714;28;20041;-56
2023/07/27 04:05:37;;;;;;;8.70;4.00;;;25.20;42.70;;;;;;20920730;28;20084;-56
2023/07/27 04:15:38;;;;;;;8.03;4.23;;;25.20;43.70;;;;;;20919301;28;20053;-57
2023/07/27 04:25:39;;;;;;;8.57;3.40;;;25.20;45.00;;;;;;20919636;28;20076;-57
2023/07/27 04:35:39;;;;;;;7.40;3.37;;;25.20;44.50;;;;;;20917719;28;20051;-57
2023/07/27 04:45:40;;;;;;;5.70;3.50;;;25.10;44.00;;;;;;20918100;28;20402;-56
2023/07/27 04:55:41;;;;;;;5.90;2.90;;;25.10;43.50;;;;;;20917484;28;20045;-56
2023/07/27 05:05:43;;;;;;;7.10;3.57;;;25.10;40.00;;;;;;20915179;28;20134;-56
2023/07/27 05:15:44;;;;;;;6.68;3.28;;;24.90;38.90;;;;;;20915449;28;20550;-57
2023/07/27 05:25:46;;;;;;;9.43;3.77;;;24.90;39.10;;;;;;20913761;28;20106;-55
2023/07/27 05:35:48;;;;;;;6.03;3.58;;;24.80;39.50;;;;;;20914462;28;20080;-56
2023/07/27 05:45:50;;;;;;;8.77;3.50;;;24.90;41.40;;;;;;20913792;28;20045;-56
2023/07/27 05:55:50;;;;;;;6.37;3.40;;;24.80;43.40;;;;;;20913936;28;20049;-57
2023/07/27 06:05:51;;;;;;;8.93;3.50;;;24.80;43.30;;;;;;20912614;28;20402;-56
2023/07/27 06:15:52;;;;;;;8.88;3.90;;;24.70;43.00;;;;;;20911464;28;20056;-57
2023/07/27 06:25:52;;;;;;;6.03;3.50;;;24.70;43.50;;;;;;20919808;28;20049;-57
2023/07/27 06:35:53;;;;;;;7.50;4.38;;;24.80;43.60;;;;;;20928373;28;20049;-57
2023/07/27 06:45:54;;;;;;;8.55;3.50;;;25.00;44.00;;;;;;20927324;28;20045;-57
2023/07/27 06:55:55;;;;;;;12.73;4.17;;;25.10;45.30;;;;;;20926702;28;20120;-57
2023/07/27 07:05:55;;;;;;;8.17;3.77;;;25.50;46.50;;;;;;20925496;28;20087;-56
2023/07/27 07:15:56;;;;;;;8.37;3.80;;;26.20;47.10;;;;;;20923502;28;20406;-57
2023/07/27 07:25:57;;;;;;;10.17;3.70;;;26.60;46.30;;;;;;20924144;28;20048;-57
2023/07/27 07:35:58;;;;;;;10.38;4.28;;;27.00;47.80;;;;;;20920990;28;20449;-56
2023/07/27 07:45:59;;;;;;;11.43;5.37;;;27.40;46.50;;;;;;20922137;28;20049;-57
2023/07/27 07:55:59;;;;;;;13.60;4.33;;;27.80;44.90;;;;;;20921500;28;20129;-56
2023/07/27 08:06:00;;;;;;;;;;;28.10;44.20;;;;;;20919514;28;20391;-57
2023/07/27 08:16:03;;;;;;;10.10;4.60;;;28.40;43.90;;;;;;20919571;28;20393;-57
2023/07/27 08:26:09;;;;;;;10.23;4.35;;;28.50;44.10;;;;;;20919386;28;20067;-56
2023/07/27 08:36:09;;;;;;;10.65;4.63;;;28.80;43.40;;;;;;20917010;28;20095;-57
2023/07/27 08:46:11;;;;;;;10.52;4.25;;;29.10;42.10;;;;;;20916093;28;20041;-56
2023/07/27 08:56:12;;;;;;;10.20;4.57;;;29.10;41.60;;;;;;20916825;28;20123;-57
2023/07/27 09:06:12;;;;;;;12.10;4.75;;;29.20;41.00;;;;;;20915746;28;20048;-57
2023/07/27 09:16:13;;;;;;;12.57;4.57;;;29.30;40.30;;;;;;20913515;28;20080;-58
2023/07/27 09:26:24;;;;;;;15.30;5.95;;;29.30;40.00;;;;;;20913923;28;20068;-58
2023/07/27 09:36:25;;;;;;;11.00;5.55;;;29.50;38.50;;;;;;20913517;28;20576;-56
2023/07/27 09:46:26;;;;;;;15.80;8.20;;;29.60;37.70;;;;;;20911491;28;20041;-57
2023/07/27 09:56:28;;;;;;;12.95;4.93;;;29.80;38.70;;;;;;20911038;28;20526;-57
2023/07/27 10:06:30;;;;;;;11.50;5.25;;;30.10;36.80;;;;;;20912297;28;20045;-57
2023/07/27 10:16:30;;;;;;;12.98;5.40;;;30.20;36.70;;;;;;20911262;28;20128;-57
2023/07/27 10:26:40;;;;;;;13.00;4.72;;;30.50;36.60;;;;;;20910270;28;20081;-57
2023/07/27 10:36:47;;;;;;;10.00;4.77;;;30.60;35.90;;;;;;20911169;28;20045;-57
2023/07/27 10:46:48;;;;;;;12.70;5.22;;;30.80;36.00;;;;;;20909437;28;20056;-57
2023/07/27 10:56:49;;;;;;;10.63;4.35;;;30.90;34.80;;;;;;20908627;28;20041;-57
2023/07/27 11:06:50;;;;;;;8.85;5.00;;;30.90;34.40;;;;;;20909323;28;20037;-57
2023/07/27 11:16:51;;;;;;;11.02;5.47;;;31.20;34.20;;;;;;20922351;28;20079;-57
2023/07/27 11:26:53;;;;;;;7.07;4.85;;;31.40;32.60;;;;;;20922231;28;20048;-58
2023/07/27 11:36:59;;;;;;;11.45;5.00;;;31.60;32.00;;;;;;20923099;28;20056;-57
2023/07/27 11:46:59;;;;;;;11.60;4.55;;;31.80;30.60;;;;;;20922458;28;20478;-57
2023/07/27 11:57:00;;;;;;;10.60;4.43;;;31.90;29.60;;;;;;20920107;28;20398;-56
2023/07/27 12:07:01;;;;;;;6.63;4.35;;;32.10;28.90;;;;;;20920626;28;20490;-57
2023/07/27 12:17:10;;;;;;;8.07;4.65;;;32.20;29.80;;;;;;20918440;28;20061;-57
2023/07/27 12:27:11;;;;;;;6.95;4.22;;;32.20;29.10;;;;;;20918478;28;20402;-56
2023/07/27 12:37:12;;;;;;;11.05;4.85;;;32.60;28.10;;;;;;20917082;28;20088;-57
2023/07/27 12:47:13;;;;;;;10.70;5.38;;;32.40;28.10;;;;;;20916774;28;20099;-56
2023/07/27 12:57:13;;;;;;;6.22;4.15;;;32.60;26.20;;;;;;20915884;28;20051;-57
2023/07/27 13:07:14;;;;;;;10.20;3.92;;;32.80;25.70;;;;;;20915631;28;20041;-57
2023/07/27 13:17:15;;;;;;;7.68;5.68;;;32.80;25.70;;;;;;20913242;28;20065;-57
2023/07/27 13:27:16;;;;;;;9.10;4.88;;;32.90;25.70;;;;;;20914151;28;20045;-58
2023/07/27 13:37:16;;;;;;;11.05;4.72;;;33.10;24.30;;;;;;20911458;28;20044;-57
2023/07/27 13:47:17;;;;;;;7.78;5.03;;;33.40;24.30;;;;;;20912673;28;20517;-56
2023/07/27 13:57:18;;;;;;;8.38;4.72;;;33.30;24.50;;;;;;20911320;28;20429;-56
2023/07/27 14:07:19;;;;;;;7.50;4.50;;;33.10;23.20;;;;;;20910735;28;20041;-57
2023/07/27 14:17:19;;;;;;;6.72;4.28;;;33.40;21.60;;;;;;20912248;28;20552;-59
2023/07/27 14:27:22;;;;;;;8.05;4.30;;;33.50;23.30;;;;;;20911112;28;20192;-58
2023/07/27 14:37:23;;;;;;;6.20;4.18;;;33.50;22.80;;;;;;20911355;28;20453;-58
2023/07/27 14:47:24;;;;;;;6.65;4.40;;;33.70;20.10;;;;;;20918449;28;20091;-56
2023/07/27 14:57:24;;;;;;;7.65;4.68;;;33.60;20.70;;;;;;20925876;28;20049;-57
2023/07/27 15:07:25;;;;;;;6.20;4.07;;;33.50;19.80;;;;;;20924443;28;20060;-57
2023/07/27 15:17:26;;;;;;;6.15;4.75;;;33.60;17.60;;;;;;20924200;28;20049;-58
2023/07/27 15:27:27;;;;;;;8.02;4.63;;;33.60;17.50;;;;;;20923968;28;20091;-57
2023/07/27 15:37:27;;;;;;;6.28;3.90;;;33.70;16.70;;;;;;20922914;28;20128;-57
2023/07/27 15:47:28;;;;;;;6.78;4.10;;;33.70;15.40;;;;;;20921065;28;20143;-57
2023/07/27 15:57:29;;;;;;;6.10;4.10;;;33.60;16.20;;;;;;20920650;28;20588;-57
2023/07/27 16:07:30;;;;;;;6.45;4.70;;;33.60;16.40;;;;;;20919389;28;20080;-60
2023/07/27 16:17:30;;;;;;;10.82;5.78;;;33.50;18.70;;;;;;20920348;28;20052;-57
2023/07/27 16:27:31;;;;;;;8.50;4.57;;;33.50;18.60;;;;;;20918100;28;20102;-57
2023/07/27 16:37:32;;;;;;;7.13;4.60;;;33.50;19.80;;;;;;20917008;28;20490;-57
2023/07/27 16:47:33;;;;;;;7.72;4.80;;;33.30;19.40;;;;;;20918033;28;20466;-57
2023/07/27 16:57:33;;;;;;;6.00;5.13;;;33.20;20.80;;;;;;20916680;28;20067;-58
2023/07/27 17:07:34;;;;;;;11.13;4.68;;;33.10;20.30;;;;;;20915097;28;20045;-60
2023/07/27 17:17:35;;;;;;;8.50;4.63;;;33.00;20.10;;;;;;20913898;28;20123;-56
2023/07/27 17:27:35;;;;;;;7.03;4.70;;;32.90;19.60;;;;;;20914613;28;20541;-57
2023/07/27 17:37:36;;;;;;;7.07;4.88;;;32.90;20.90;;;;;;20913653;28;20047;-57
2023/07/27 17:47:37;;;;;;;7.65;5.00;;;32.70;21.10;;;;;;20913557;28;20041;-57
2023/07/27 17:57:38;;;;;;;8.30;5.25;;;32.60;20.50;;;;;;20912712;28;20044;-57
2023/07/27 18:07:38;;;;;;;9.52;5.15;;;32.40;21.10;;;;;;20910811;28;20098;-57
2023/07/27 18:17:39;;;;;;;9.93;5.65;;;32.30;21.20;;;;;;20911846;28;20124;-58
2023/07/27 18:27:40;;;;;;;9.45;4.70;;;32.10;21.80;;;;;;20929100;28;20550;-57
2023/07/27 18:37:42;;;;;;;8.05;4.72;;;31.90;21.30;;;;;;20928550;28;20490;-58
2023/07/27 18:47:43;;;;;;;7.28;4.93;;;31.80;21.70;;;;;;20927409;28;20041;-59
2023/07/27 18:57:44;;;;;;;8.10;4.50;;;31.70;22.00;;;;;;20926418;28;20398;-59
2023/07/27 19:07:45;;;;;;;9.40;5.38;;;31.60;22.20;;;;;;20925194;28;20060;-57
2023/07/27 19:17:45;;;;;;;7.57;5.07;;;31.20;23.20;;;;;;20923861;28;20047;-57
2023/07/27 19:27:47;;;;;;;8.48;4.53;;;31.10;23.60;;;;;;20923506;28;20045;-57
2023/07/27 19:37:48;;;;;;;7.80;4.85;;;31.00;23.80;;;;;;20923651;28;20041;-57
2023/07/27 19:47:48;;;;;;;8.40;5.40;;;30.80;24.00;;;;;;20922864;28;20398;-58
2023/07/27 19:57:49;;;;;;;7.55;5.40;;;30.70;24.60;;;;;;20921937;28;20081;-57
2023/07/27 20:07:50;;;;;;;9.02;6.18;;;30.60;24.70;;;;;;20920694;28;20055;-58
2023/07/27 20:17:51;;;;;;;9.63;5.85;;;30.40;24.80;;;;;;20920557;28;20123;-57
2023/07/27 20:27:51;;;;;;;10.13;6.00;;;30.30;25.00;;;;;;20919719;28;20049;-59
2023/07/27 20:37:52;;;;;;;9.02;5.20;;;30.10;25.10;;;;;;20918654;28;20053;-56
2023/07/27 20:47:53;;;;;;;10.13;5.72;;;30.00;25.40;;;;;;20917491;28;20077;-58
2023/07/27 20:57:53;;;;;;;10.68;5.80;;;29.90;25.70;;;;;;20915984;28;20041;-57
2023/07/27 21:07:54;;;;;;;12.27;5.53;;;29.60;26.70;;;;;;20915399;28;20502;-59
2023/07/27 21:17:55;;;;;;;8.05;5.57;;;29.60;27.90;;;;;;20915050;28;20088;-59
2023/07/27 21:27:56;;;;;;;6.30;4.82;;;29.30;29.20;;;;;;20915308;28;20481;-57
2023/07/27 21:37:56;;;;;;;8.55;5.55;;;29.10;30.30;;;;;;20914529;28;20045;-57
2023/07/27 21:47:57;;;;;;;8.05;5.38;;;28.80;30.80;;;;;;20913094;28;20045;-56
2023/07/27 21:57:58;;;;;;;7.15;5.38;;;28.90;30.90;;;;;;20911782;28;20052;-57
2023/07/27 22:07:58;;;;;;;7.70;5.00;;;28.70;31.10;;;;;;20910728;28;20045;-57
2023/07/27 22:17:59;;;;;;;6.65;4.80;;;28.60;31.10;;;;;;20911104;28;20482;-56
2023/07/27 22:28:00;;;;;;;9.90;4.95;;;28.50;31.40;;;;;;20912932;28;20565;-57
2023/07/27 22:38:01;;;;;;;6.40;4.68;;;28.40;31.40;;;;;;20910353;28;20048;-58
2023/07/27 22:48:01;;;;;;;7.13;4.65;;;28.40;31.50;;;;;;20911324;28;20490;-57
2023/07/27 22:58:02;;;;;;;;;;;28.30;31.50;;;;;;20910124;28;20056;-56
2023/07/27 23:08:04;;;;;;;6.07;4.75;;;28.10;31.50;;;;;;20916248;28;19921;-58
2023/07/27 23:18:05;;;;;;;7.90;4.70;;;28.00;31.40;;;;;;20925525;28;20568;-57
2023/07/27 23:28:06;;;;;;;;;;;28.00;31.60;;;;;;20923658;28;20052;-59
2023/07/27 23:38:07;;;;;;;6.37;4.60;;;27.90;31.40;;;;;;20923780;28;20378;-56
2023/07/27 23:48:08;;;;;;;7.25;4.80;;;27.90;31.50;;;;;;20923118;28;20048;-57
2023/07/27 23:58:08;;;;;;;8.27;5.03;;;27.80;31.60;;;;;;20922696;28;20041;-57
